createdAt,value
2018-07-23T00:04:34.598Z,20.80
2018-07-23T00:09:27.820Z,20.70
2018-07-23T00:14:21.027Z,20.60
2018-07-23T00:19:14.386Z,20.50
2018-07-23T00:24:07.628Z,20.50
2018-07-23T00:33:54.054Z,20.40
2018-07-23T00:38:47.249Z,20.30
2018-07-23T00:43:40.471Z,20.40
2018-07-23T00:48:33.675Z,20.30
2018-07-23T00:53:26.924Z,20.10
2018-07-23T00:58:20.167Z,20.10
2018-07-23T01:03:13.383Z,20.20
2018-07-23T01:08:07.418Z,20.20
2018-07-23T01:13:00.605Z,20.20
2018-07-23T01:17:53.825Z,20.10
2018-07-23T01:22:47.117Z,20.00
2018-07-23T01:27:40.709Z,20.00
2018-07-23T01:37:27.085Z,19.80
2018-07-23T01:42:20.356Z,19.70
2018-07-23T01:47:13.606Z,19.70
2018-07-23T01:56:59.943Z,19.70
2018-07-23T02:01:53.228Z,19.70
2018-07-23T02:06:46.475Z,19.70
2018-07-23T02:11:39.696Z,19.70
2018-07-23T02:16:33.167Z,19.60
2018-07-23T02:21:26.380Z,19.60
2018-07-23T02:31:12.821Z,19.50
2018-07-23T02:36:06.045Z,19.40
2018-07-23T02:45:52.382Z,19.20
2018-07-23T02:50:45.687Z,19.20
2018-07-23T02:55:38.894Z,19.10
2018-07-23T03:05:25.295Z,19.00
2018-07-23T03:10:18.513Z,18.90
2018-07-23T03:15:11.833Z,18.70
2018-07-23T03:20:05.241Z,18.70
2018-07-23T03:24:58.594Z,18.80
2018-07-23T03:29:51.809Z,18.70
2018-07-23T03:34:45.089Z,18.60
2018-07-23T03:39:38.295Z,18.50
2018-07-23T03:44:31.533Z,18.40
2018-07-23T03:49:24.719Z,18.40
2018-07-23T03:54:17.961Z,18.50
2018-07-23T03:59:11.195Z,18.50
2018-07-23T04:04:04.427Z,18.50
2018-07-23T04:08:57.621Z,18.50
2018-07-23T04:13:50.845Z,18.50
2018-07-23T04:18:44.059Z,18.50
2018-07-23T04:23:37.273Z,18.60
2018-07-23T04:33:23.621Z,18.60
2018-07-23T04:43:10.059Z,19.00
2018-07-23T04:48:03.290Z,19.30
2018-07-23T04:52:56.501Z,19.60
2018-07-23T04:57:49.780Z,19.80
2018-07-23T05:02:42.988Z,20.30
2018-07-23T05:07:36.220Z,20.50
2018-07-23T05:12:29.443Z,21.00
2018-07-23T05:17:22.675Z,22.50
2018-07-23T05:22:16.028Z,23.80
2018-07-23T05:27:09.209Z,25.10
2018-07-23T05:32:02.464Z,27.60
2018-07-23T05:36:55.677Z,29.60
2018-07-23T05:41:48.911Z,30.50
2018-07-23T05:46:42.113Z,30.40
2018-07-23T05:51:35.397Z,31.00
2018-07-23T05:56:28.597Z,31.90
2018-07-23T06:01:21.840Z,30.50
2018-07-23T06:06:15.190Z,28.90
2018-07-23T06:11:08.363Z,27.30
2018-07-23T06:16:01.602Z,25.60
2018-07-23T06:20:54.829Z,25.20
2018-07-23T06:25:48.163Z,24.60
2018-07-23T06:30:41.473Z,24.70
2018-07-23T06:35:36.111Z,24.50
2018-07-23T06:40:29.391Z,24.70
2018-07-23T06:50:15.835Z,25.00
2018-07-23T07:00:02.295Z,24.90
2018-07-23T07:04:55.529Z,25.10
2018-07-23T07:09:48.863Z,25.30
2018-07-23T07:14:42.123Z,25.60
2018-07-23T07:19:35.347Z,25.60
2018-07-23T07:24:28.553Z,26.10
2018-07-23T07:34:15.715Z,27.90
2018-07-23T07:58:43.545Z,36.90
2018-07-23T08:03:36.811Z,34.40
2018-07-23T08:13:23.295Z,35.50
2018-07-23T08:18:16.628Z,36.00
2018-07-23T08:28:09.908Z,36.50
2018-07-23T08:33:03.215Z,37.10
2018-07-23T08:42:49.532Z,36.30
2018-07-23T08:47:42.755Z,36.30
2018-07-23T08:52:36.037Z,36.00
2018-07-23T08:57:29.319Z,36.90
2018-07-23T09:02:22.583Z,38.40
2018-07-23T09:12:08.935Z,39.30
2018-07-23T09:17:02.247Z,37.00
2018-07-23T09:21:55.472Z,36.40
2018-07-23T09:26:48.691Z,37.10
2018-07-23T09:31:41.928Z,37.40
2018-07-23T09:36:35.113Z,37.50
2018-07-23T09:41:28.355Z,37.00
2018-07-23T09:51:14.723Z,36.30
2018-07-23T09:56:08.290Z,35.60
2018-07-23T10:01:07.088Z,35.90
2018-07-23T10:15:46.740Z,36.20
2018-07-23T10:20:39.953Z,35.40
2018-07-23T10:25:33.164Z,35.30
2018-07-23T10:30:26.437Z,34.30
2018-07-23T10:35:19.704Z,33.90
2018-07-23T10:45:06.242Z,34.20
2018-07-23T10:49:59.556Z,33.50
2018-07-23T10:54:52.775Z,32.60
2018-07-23T10:59:45.998Z,32.40
2018-07-23T11:04:39.300Z,32.40
2018-07-23T11:09:32.513Z,33.20
2018-07-23T11:14:25.733Z,33.70
2018-07-23T11:19:19.051Z,32.60
2018-07-23T11:24:12.352Z,33.00
2018-07-23T11:29:05.582Z,32.90
2018-07-23T11:33:58.793Z,32.70
2018-07-23T11:38:52.052Z,32.50
2018-07-23T11:43:45.244Z,32.40
2018-07-23T11:58:24.942Z,32.80
2018-07-23T12:03:18.167Z,33.20
2018-07-23T12:08:11.383Z,33.50
2018-07-23T12:13:05.197Z,33.00
2018-07-23T12:27:44.717Z,33.60
2018-07-23T12:32:38.829Z,33.70
2018-07-23T12:37:32.088Z,34.20
2018-07-23T12:47:18.458Z,34.40
2018-07-23T12:52:11.825Z,34.40
2018-07-23T12:57:05.230Z,34.20
2018-07-23T13:01:58.496Z,34.10
2018-07-23T13:06:51.733Z,34.10
2018-07-23T13:11:44.993Z,33.90
2018-07-23T13:16:38.216Z,33.20
2018-07-23T13:21:31.768Z,33.30
2018-07-23T13:26:25.039Z,33.10
2018-07-23T13:36:11.538Z,34.00
2018-07-23T13:41:04.828Z,34.20
2018-07-23T13:45:58.063Z,33.50
2018-07-23T13:50:51.346Z,33.50
2018-07-23T13:55:44.611Z,33.60
2018-07-23T14:00:37.864Z,33.00
2018-07-23T14:05:31.167Z,32.40
2018-07-23T14:10:24.405Z,32.50
2018-07-23T14:15:17.605Z,33.90
2018-07-23T14:20:10.976Z,34.50
2018-07-23T14:25:04.556Z,34.60
2018-07-23T14:29:57.782Z,34.60
2018-07-23T14:34:50.998Z,34.60
2018-07-23T14:39:44.295Z,34.40
2018-07-23T14:44:37.501Z,33.80
2018-07-23T14:49:30.757Z,33.60
2018-07-23T14:54:23.925Z,33.30
2018-07-23T14:59:17.197Z,33.10
2018-07-23T15:04:10.452Z,33.60
2018-07-23T15:09:05.320Z,33.50
2018-07-23T15:13:58.524Z,33.60
2018-07-23T15:28:38.116Z,33.30
2018-07-23T15:33:31.312Z,33.20
2018-07-23T15:43:17.729Z,33.40
2018-07-23T15:48:10.923Z,32.80
2018-07-23T15:53:04.146Z,32.60
2018-07-23T15:57:57.376Z,32.10
2018-07-23T16:02:50.575Z,32.10
2018-07-23T16:07:43.877Z,32.10
2018-07-23T16:12:37.095Z,32.10
2018-07-23T16:17:30.318Z,31.80
2018-07-23T16:22:23.512Z,31.70
2018-07-23T16:27:16.798Z,32.00
2018-07-23T16:32:10.135Z,32.30
2018-07-23T16:37:03.378Z,32.10
2018-07-23T16:46:49.920Z,31.70
2018-07-23T16:56:36.302Z,31.20
2018-07-23T17:01:29.512Z,30.90
2018-07-23T17:06:22.733Z,30.90
2018-07-23T17:16:09.222Z,31.00
2018-07-23T17:21:02.498Z,31.20
2018-07-23T17:25:55.725Z,31.50
2018-07-23T17:35:42.095Z,31.40
2018-07-23T17:40:35.340Z,31.30
2018-07-23T17:50:22.707Z,30.60
2018-07-23T17:55:15.950Z,30.40
2018-07-23T18:00:09.286Z,30.10
2018-07-23T18:05:02.548Z,30.10
2018-07-23T18:09:55.771Z,30.00
2018-07-23T18:14:48.988Z,29.80
2018-07-23T18:24:35.366Z,29.60
2018-07-23T18:29:28.616Z,29.40
2018-07-23T18:39:14.972Z,28.90
2018-07-23T18:44:08.438Z,28.70
2018-07-23T18:54:21.682Z,28.30
2018-07-23T18:59:14.974Z,28.10
2018-07-23T19:04:08.602Z,28.00
2018-07-23T19:09:01.826Z,27.80
2018-07-23T19:13:55.064Z,27.60
2018-07-23T19:18:48.312Z,27.40
2018-07-23T19:23:41.505Z,27.20
2018-07-23T19:28:34.756Z,27.10
2018-07-23T19:33:27.961Z,27.00
2018-07-23T19:38:21.174Z,26.80
2018-07-23T19:43:14.361Z,26.60
2018-07-23T19:53:00.663Z,26.50
2018-07-23T19:57:53.900Z,26.30
2018-07-23T20:02:47.121Z,26.20
2018-07-23T20:07:40.361Z,26.00
2018-07-23T20:12:33.586Z,25.80
2018-07-23T20:17:26.809Z,25.70
2018-07-23T20:22:20.012Z,25.60
2018-07-23T20:27:13.314Z,25.40
2018-07-23T20:32:06.646Z,25.20
2018-07-23T20:36:59.895Z,25.00
2018-07-23T20:41:53.216Z,24.90
2018-07-23T20:46:46.443Z,24.80
2018-07-23T20:51:40.269Z,24.50
2018-07-23T20:56:33.555Z,24.50
2018-07-23T21:01:26.769Z,24.30
2018-07-23T21:06:20.026Z,24.20
2018-07-23T21:11:13.274Z,24.00
2018-07-23T21:16:06.558Z,24.00
2018-07-23T21:21:00.189Z,23.90
2018-07-23T21:25:53.453Z,23.80
2018-07-23T21:30:46.695Z,23.70
2018-07-23T21:35:39.908Z,23.60
2018-07-23T21:40:33.185Z,23.40
2018-07-23T21:45:26.400Z,23.50
2018-07-23T21:50:19.672Z,23.50
2018-07-23T21:55:12.977Z,23.40
2018-07-23T22:00:14.251Z,23.50
2018-07-23T22:05:07.921Z,23.50
2018-07-23T22:10:01.137Z,23.30
2018-07-23T22:14:54.378Z,23.30
2018-07-23T22:19:47.608Z,23.10
2018-07-23T22:24:40.826Z,23.10
2018-07-23T22:34:27.185Z,23.10
2018-07-23T22:39:20.469Z,23.00
2018-07-23T22:44:13.695Z,23.00
2018-07-23T22:54:00.109Z,22.90
2018-07-23T22:58:53.335Z,22.90
2018-07-23T23:03:46.542Z,22.80
2018-07-23T23:08:39.759Z,22.70
2018-07-23T23:13:33.000Z,22.60
2018-07-23T23:18:26.241Z,22.60
2018-07-23T23:28:12.663Z,22.50
2018-07-23T23:33:06.091Z,22.30
2018-07-23T23:37:59.292Z,22.30
2018-07-23T23:42:52.492Z,22.20
2018-07-23T23:47:45.712Z,22.10
2018-07-23T23:52:38.924Z,22.10
2018-07-23T23:57:32.442Z,22.00
